Time;durP1;ratioP1;P1;durP2;ratioP2;P2;SDS_P1;SDS_P2;PMS_P1;PMS_P2;Temp;Humidity;BMP_temperature;BMP_pressure;BME280_temperature;BME280_humidity;BME280_pressure;Samples;Min_cycle;Max_cycle;Signal;HPM_P1;HPM_P2
2023/03/21 00:00:55;;;;;;;2.25;0.88;;;10.60;99.90;;;;;;5062845;28;20039;-79
2023/03/21 00:03:22;;;;;;;1.05;0.75;;;10.60;99.90;;;;;;5062666;28;20051;-79
2023/03/21 00:05:52;;;;;;;2.00;1.00;;;10.60;99.90;;;;;;5046034;28;20492;-79
2023/03/21 00:08:19;;;;;;;1.75;1.05;;;10.70;99.90;;;;;;5046782;28;20395;-79
2023/03/21 00:10:46;;;;;;;1.83;0.85;;;10.70;99.90;;;;;;5044028;28;20243;-78
2023/03/21 00:13:14;;;;;;;1.05;0.77;;;10.60;99.90;;;;;;5025274;28;20116;-79
2023/03/21 00:15:50;;;;;;;2.22;1.10;;;10.70;99.90;;;;;;5062201;28;20067;-79
2023/03/21 00:18:41;;;;;;;1.40;1.15;;;10.70;99.90;;;;;;5052644;28;20084;-79
2023/03/21 00:21:10;;;;;;;1.20;0.95;;;10.70;99.90;;;;;;5046698;28;20040;-79
2023/03/21 00:23:57;;;;;;;1.58;0.90;;;10.70;99.90;;;;;;5051024;28;20055;-79
2023/03/21 00:26:24;;;;;;;2.67;1.10;;;10.70;99.90;;;;;;5062639;28;20052;-79
2023/03/21 00:28:51;;;;;;;1.00;0.80;;;10.70;99.90;;;;;;5080280;28;20052;-79
2023/03/21 00:31:18;;;;;;;1.45;0.90;;;10.70;99.90;;;;;;5046453;28;20059;-79
2023/03/21 00:33:44;;;;;;;1.38;0.88;;;10.70;99.90;;;;;;5062576;28;20060;-79
2023/03/21 00:36:11;;;;;;;1.73;1.10;;;10.60;99.90;;;;;;5045305;28;20258;-79
2023/03/21 00:38:39;;;;;;;1.45;0.90;;;10.60;99.90;;;;;;5045939;28;20142;-79
2023/03/21 00:44:35;;;;;;;1.05;0.65;;;10.60;99.90;;;;;;5080286;28;20293;-79
2023/03/21 00:47:02;;;;;;;;;;;10.60;99.90;;;;;;5080779;28;20060;-79
2023/03/21 00:49:33;;;;;;;1.05;0.65;;;10.70;99.90;;;;;;5063182;28;20003;-78
2023/03/21 00:52:00;;;;;;;0.98;0.60;;;10.60;99.90;;;;;;5045135;28;20149;-79
2023/03/21 00:54:41;;;;;;;1.70;0.90;;;10.60;99.90;;;;;;5063741;28;20070;-78
2023/03/21 00:57:08;;;;;;;0.90;0.80;;;10.60;99.90;;;;;;5062426;28;20440;-78
2023/03/21 00:59:35;;;;;;;1.17;0.80;;;10.60;99.90;;;;;;5045575;28;20510;-78
2023/03/21 01:02:06;;;;;;;1.77;0.80;;;10.60;99.90;;;;;;5045915;28;20094;-79
2023/03/21 01:04:33;;;;;;;1.73;0.80;;;10.60;99.90;;;;;;5062485;28;20051;-79
2023/03/21 01:06:59;;;;;;;1.10;0.75;;;10.60;99.90;;;;;;5080699;28;20071;-78
2023/03/21 01:09:26;;;;;;;1.10;0.82;;;10.60;99.90;;;;;;5082931;28;20060;-79
2023/03/21 01:11:53;;;;;;;1.30;0.85;;;10.60;99.90;;;;;;5083726;28;20084;-80
2023/03/21 01:14:21;;;;;;;2.13;0.85;;;10.60;99.90;;;;;;5047917;28;20077;-79
2023/03/21 01:16:52;;;;;;;1.38;0.68;;;10.60;99.90;;;;;;5049685;28;20051;-79
2023/03/21 01:19:21;;;;;;;1.10;0.80;;;10.60;99.90;;;;;;5048634;28;20052;-79
2023/03/21 01:21:56;;;;;;;1.52;0.70;;;10.60;99.90;;;;;;5066184;28;20109;-80
2023/03/21 01:24:23;;;;;;;1.38;0.90;;;10.60;99.90;;;;;;5048260;28;20055;-79
2023/03/21 01:26:50;;;;;;;0.98;0.85;;;10.50;99.90;;;;;;5065059;28;20367;-79
2023/03/21 01:29:17;;;;;;;2.70;0.80;;;10.50;99.90;;;;;;5065576;28;20138;-78
2023/03/21 01:31:43;;;;;;;1.35;0.80;;;10.50;99.90;;;;;;5069284;28;20040;-79
2023/03/21 01:34:10;;;;;;;1.67;0.80;;;10.50;99.90;;;;;;5069132;28;20075;-79
2023/03/21 01:36:37;;;;;;;2.17;1.15;;;10.50;99.90;;;;;;5068431;28;20403;-79
2023/03/21 01:39:05;;;;;;;2.53;0.98;;;10.50;99.90;;;;;;5086389;28;20105;-79
2023/03/21 01:41:37;;;;;;;1.30;0.80;;;10.50;99.90;;;;;;5069150;28;20044;-79
2023/03/21 01:44:19;;;;;;;2.47;1.13;;;10.50;99.90;;;;;;5053657;28;20131;-78
2023/03/21 01:46:48;;;;;;;2.45;1.25;;;10.50;99.90;;;;;;5087352;28;20533;-79
2023/03/21 01:49:40;;;;;;;2.95;1.27;;;10.50;99.90;;;;;;5056445;28;20055;-78
2023/03/21 01:52:09;;;;;;;2.03;1.15;;;10.50;99.90;;;;;;5051441;28;20101;-79
2023/03/21 01:54:42;;;;;;;2.15;1.38;;;10.50;99.90;;;;;;5069344;28;20054;-79
2023/03/21 01:57:18;;;;;;;2.58;1.40;;;10.50;99.90;;;;;;5068400;28;20054;-79
2023/03/21 01:59:49;;;;;;;3.33;1.95;;;10.40;99.90;;;;;;5052390;28;20084;-78
2023/03/21 02:02:22;;;;;;;2.78;1.73;;;10.40;99.90;;;;;;5053319;28;20044;-79
2023/03/21 02:04:50;;;;;;;3.63;2.25;;;10.40;99.90;;;;;;5052266;28;20051;-78
2023/03/21 02:07:30;;;;;;;3.65;2.10;;;10.40;99.90;;;;;;5067815;28;20059;-79
2023/03/21 02:09:57;;;;;;;3.20;1.85;;;10.40;99.90;;;;;;5051551;28;20142;-79
2023/03/21 02:12:25;;;;;;;2.40;1.33;;;10.40;99.90;;;;;;5051531;28;20481;-79
2023/03/21 02:14:51;;;;;;;2.20;1.45;;;10.40;99.90;;;;;;5051925;28;20054;-79
2023/03/21 02:17:34;;;;;;;5.63;1.63;;;10.30;99.90;;;;;;5051905;28;20048;-79
2023/03/21 02:20:20;;;;;;;3.38;1.50;;;10.30;99.90;;;;;;5051614;28;20119;-79
2023/03/21 02:22:52;;;;;;;2.40;1.45;;;10.30;99.90;;;;;;5052705;28;20047;-79
2023/03/21 02:25:24;;;;;;;3.00;1.55;;;10.30;99.90;;;;;;5067263;28;20048;-79
2023/03/21 02:28:09;;;;;;;2.60;1.17;;;10.30;99.90;;;;;;5086159;28;20491;-79
2023/03/21 02:31:03;;;;;;;1.90;0.90;;;10.30;99.90;;;;;;5084697;28;20043;-79
2023/03/21 02:33:45;;;;;;;2.85;1.48;;;10.20;99.90;;;;;;5060622;28;20048;-79
2023/03/21 02:36:25;;;;;;;1.83;1.08;;;10.20;99.90;;;;;;5051322;28;20490;-79
2023/03/21 02:39:16;;;;;;;3.65;1.50;;;10.20;99.90;;;;;;5070074;28;20052;-79
2023/03/21 02:41:56;;;;;;;1.92;1.10;;;10.20;99.90;;;;;;5065996;28;20070;-79
2023/03/21 02:44:28;;;;;;;1.85;1.15;;;10.20;99.90;;;;;;5072101;28;20691;-79
2023/03/21 02:47:02;;;;;;;2.93;1.63;;;10.20;99.90;;;;;;5053355;28;20554;-79
2023/03/21 02:49:35;;;;;;;3.00;1.60;;;10.20;99.90;;;;;;4709064;28;9999727;-79
2023/03/21 02:52:02;;;;;;;3.33;2.05;;;10.20;99.90;;;;;;5053771;28;20044;-79
2023/03/21 02:54:44;;;;;;;3.03;1.60;;;10.20;99.90;;;;;;5037689;28;20076;-79
2023/03/21 02:57:16;;;;;;;6.93;2.78;;;10.20;99.90;;;;;;5050605;28;20471;-79
2023/03/21 02:59:43;;;;;;;3.50;2.20;;;10.20;99.90;;;;;;5051276;28;20404;-80
2023/03/21 03:02:23;;;;;;;3.70;1.98;;;10.20;99.90;;;;;;5086984;28;20087;-79
2023/03/21 03:04:50;;;;;;;3.67;2.25;;;10.20;99.90;;;;;;5070518;28;20074;-79
2023/03/21 03:07:23;;;;;;;3.75;1.75;;;10.20;99.90;;;;;;5052627;28;20483;-78
2023/03/21 03:09:59;;;;;;;4.05;1.67;;;10.20;99.90;;;;;;5070499;28;20075;-78
2023/03/21 03:12:44;;;;;;;3.20;1.65;;;10.20;99.90;;;;;;5069558;28;20062;-78
2023/03/21 03:15:17;;;;;;;2.83;1.90;;;10.20;99.90;;;;;;5053584;28;20048;-79
2023/03/21 03:18:08;;;;;;;2.88;1.45;;;10.20;99.90;;;;;;5088250;28;20044;-79
2023/03/21 03:20:56;;;;;;;3.08;1.42;;;10.20;99.90;;;;;;5073036;28;20055;-78
2023/03/21 03:23:41;;;;;;;2.50;1.83;;;10.20;99.90;;;;;;5087118;28;20048;-78
2023/03/21 03:26:13;;;;;;;2.40;1.58;;;10.20;99.90;;;;;;5052745;28;20507;-78
2023/03/21 03:28:42;;;;;;;1.92;1.20;;;10.20;99.90;;;;;;5053549;28;20071;-78
2023/03/21 03:31:11;;;;;;;2.65;1.17;;;10.20;99.90;;;;;;5053178;28;20055;-79
2023/03/21 03:33:41;;;;;;;2.90;1.25;;;10.20;99.90;;;;;;5053468;28;20064;-79
2023/03/21 03:36:10;;;;;;;4.53;1.35;;;10.20;99.90;;;;;;5053170;28;20123;-79
2023/03/21 03:38:54;;;;;;;3.20;1.30;;;10.10;99.90;;;;;;5057818;28;20073;-79
2023/03/21 03:41:23;;;;;;;5.07;1.60;;;10.10;99.90;;;;;;5053482;28;20048;-79
2023/03/21 03:43:54;;;;;;;2.20;1.98;;;10.10;99.90;;;;;;5053264;28;20054;-79
2023/03/21 03:46:37;;;;;;;2.53;1.17;;;10.00;99.90;;;;;;5053901;28;20044;-79
2023/03/21 03:49:07;;;;;;;1.95;1.30;;;10.00;99.90;;;;;;5054496;28;20048;-78
2023/03/21 03:51:50;;;;;;;1.75;1.00;;;10.00;99.90;;;;;;5052247;28;20132;-79
2023/03/21 03:54:37;;;;;;;3.17;1.10;;;10.00;99.90;;;;;;5054013;28;20056;-79
2023/03/21 03:57:04;;;;;;;1.90;0.98;;;10.00;99.90;;;;;;5054696;28;20078;-79
2023/03/21 03:59:40;;;;;;;3.63;1.27;;;9.90;99.90;;;;;;5053209;28;20048;-79
2023/03/21 04:02:07;;;;;;;1.92;1.13;;;9.90;99.90;;;;;;5052317;28;20058;-79
2023/03/21 04:04:35;;;;;;;2.20;1.05;;;9.90;99.90;;;;;;5052275;28;20487;-79
2023/03/21 04:07:02;;;;;;;2.05;1.55;;;9.90;99.90;;;;;;5035887;28;20048;-79
2023/03/21 04:09:29;;;;;;;2.97;1.15;;;9.90;99.90;;;;;;5052167;28;20127;-79
2023/03/21 04:12:09;;;;;;;2.78;0.85;;;9.90;99.90;;;;;;5067142;28;20072;-79
2023/03/21 04:14:36;;;;;;;2.15;0.88;;;9.90;99.90;;;;;;5052429;28;20070;-79
2023/03/21 04:17:11;;;;;;;2.55;0.82;;;9.90;99.90;;;;;;5070477;28;20547;-78
2023/03/21 04:19:37;;;;;;;1.50;0.80;;;9.90;99.90;;;;;;5069038;28;20088;-79
2023/03/21 04:22:04;;;;;;;2.25;0.88;;;9.90;99.90;;;;;;5068571;28;20173;-79
2023/03/21 04:24:32;;;;;;;1.10;0.73;;;9.90;99.90;;;;;;5052130;28;20142;-79
2023/03/21 04:26:59;;;;;;;0.95;0.70;;;9.90;99.90;;;;;;5069310;28;20130;-79
2023/03/21 04:29:28;;;;;;;2.15;1.55;;;10.00;99.90;;;;;;5068387;28;20074;-78
2023/03/21 04:31:55;;;;;;;2.15;1.05;;;9.90;99.90;;;;;;5069303;28;20047;-79
2023/03/21 04:34:22;;;;;;;1.67;1.00;;;9.90;99.90;;;;;;5086605;28;20112;-79
2023/03/21 04:36:52;;;;;;;1.08;0.57;;;9.90;99.90;;;;;;5068179;28;20040;-79
2023/03/21 04:39:19;;;;;;;1.60;1.10;;;9.90;99.90;;;;;;5052129;28;20138;-79
2023/03/21 04:41:46;;;;;;;2.00;1.00;;;9.90;99.90;;;;;;5052103;28;20138;-79
2023/03/21 04:44:14;;;;;;;3.25;0.90;;;9.90;99.90;;;;;;5051403;28;20572;-78
2023/03/21 04:46:41;;;;;;;2.00;1.40;;;9.90;99.90;;;;;;5068987;28;20139;-79
2023/03/21 04:49:08;;;;;;;1.30;0.82;;;9.90;99.90;;;;;;5051722;28;20086;-78
2023/03/21 04:51:35;;;;;;;1.65;0.98;;;9.90;99.90;;;;;;5051235;28;20144;-78
2023/03/21 04:54:02;;;;;;;1.08;0.65;;;9.80;99.90;;;;;;5051189;28;20106;-78
2023/03/21 04:56:32;;;;;;;1.75;0.70;;;9.80;99.90;;;;;;5068287;28;20062;-78
2023/03/21 04:59:07;;;;;;;1.45;0.80;;;9.80;99.90;;;;;;5069017;28;20131;-78
2023/03/21 05:01:34;;;;;;;3.10;0.93;;;9.70;99.90;;;;;;5085252;28;20074;-79
2023/03/21 05:04:01;;;;;;;3.17;1.13;;;9.70;99.90;;;;;;5086528;28;20138;-78
2023/03/21 05:06:28;;;;;;;4.00;1.25;;;9.70;99.90;;;;;;5055450;28;20054;-78
2023/03/21 05:08:58;;;;;;;2.40;1.00;;;9.70;99.90;;;;;;5055550;28;20418;-78
2023/03/21 05:11:29;;;;;;;3.42;0.98;;;9.70;99.90;;;;;;5056750;28;20052;-78
2023/03/21 05:13:57;;;;;;;1.73;0.80;;;9.70;99.90;;;;;;5090057;28;20064;-78
2023/03/21 05:16:25;;;;;;;1.98;0.88;;;9.80;99.90;;;;;;5055630;28;20518;-78
2023/03/21 05:18:54;;;;;;;2.38;1.10;;;9.80;99.90;;;;;;5072822;28;20407;-78
2023/03/21 05:21:21;;;;;;;3.15;1.05;;;9.80;99.90;;;;;;5089649;28;20101;-78
2023/03/21 05:23:54;;;;;;;3.42;1.02;;;9.80;99.90;;;;;;5089769;28;20052;-78
2023/03/21 05:26:21;;;;;;;2.00;0.98;;;9.80;99.90;;;;;;5084024;28;20070;-81
2023/03/21 05:28:48;;;;;;;1.80;1.08;;;9.80;99.90;;;;;;5051155;28;20052;-79
2023/03/21 05:31:16;;;;;;;2.20;1.00;;;9.80;99.90;;;;;;5067185;28;20139;-78
2023/03/21 05:33:43;;;;;;;1.38;0.80;;;9.80;99.90;;;;;;5061109;28;20052;-79
2023/03/21 05:36:10;;;;;;;2.85;0.98;;;9.70;99.90;;;;;;5086742;28;20136;-78
2023/03/21 05:38:38;;;;;;;1.50;0.70;;;9.70;99.90;;;;;;5070457;28;20052;-78
2023/03/21 05:41:05;;;;;;;1.98;0.90;;;9.70;99.90;;;;;;5070895;28;20067;-78
2023/03/21 05:43:31;;;;;;;2.15;0.70;;;9.70;99.90;;;;;;5071301;28;20052;-79
2023/03/21 05:45:58;;;;;;;0.82;0.60;;;9.60;99.90;;;;;;5071386;28;20523;-78
2023/03/21 05:48:25;;;;;;;0.85;0.60;;;9.60;99.90;;;;;;5068126;28;20509;-78
2023/03/21 05:50:52;;;;;;;2.30;0.80;;;9.60;99.90;;;;;;5064128;28;20050;-78
2023/03/21 05:53:19;;;;;;;1.75;0.73;;;9.60;99.90;;;;;;5083650;28;20056;-79
2023/03/21 05:55:48;;;;;;;1.65;0.70;;;9.60;99.90;;;;;;5069074;28;20044;-78
2023/03/21 05:58:15;;;;;;;1.75;1.25;;;9.60;99.90;;;;;;5064025;28;20084;-78
2023/03/21 06:00:42;;;;;;;1.27;0.77;;;9.60;99.90;;;;;;5066125;28;20075;-78
2023/03/21 06:03:09;;;;;;;0.98;0.60;;;9.60;99.90;;;;;;5076881;28;20083;-78
2023/03/21 06:05:36;;;;;;;1.80;0.82;;;9.60;99.90;;;;;;5083751;28;20052;-89
2023/03/21 06:08:03;;;;;;;1.42;1.05;;;9.60;99.90;;;;;;5049241;28;20514;-79
2023/03/21 06:10:30;;;;;;;1.85;0.90;;;9.60;99.90;;;;;;5083111;28;20044;-80
2023/03/21 06:12:57;;;;;;;1.25;0.73;;;9.60;99.90;;;;;;5080481;28;20139;-80
2023/03/21 06:15:25;;;;;;;1.90;1.08;;;9.60;99.90;;;;;;5067151;28;20052;-80
2023/03/21 06:17:52;;;;;;;2.65;1.10;;;9.60;99.90;;;;;;5044406;28;20105;-79
2023/03/21 06:20:19;;;;;;;2.40;1.02;;;9.60;99.90;;;;;;5062899;28;20131;-82
2023/03/21 06:22:46;;;;;;;2.13;1.08;;;9.60;99.90;;;;;;5061213;28;20056;-81
2023/03/21 06:25:12;;;;;;;1.60;0.90;;;9.60;99.90;;;;;;5062584;28;20048;-81
2023/03/21 06:27:39;;;;;;;4.70;1.83;;;9.60;99.90;;;;;;5061690;28;20469;-82
2023/03/21 06:30:08;;;;;;;2.42;0.93;;;9.60;99.90;;;;;;5062338;28;20063;-83
2023/03/21 06:32:35;;;;;;;1.58;0.95;;;9.70;99.90;;;;;;5064623;28;20056;-85
2023/03/21 06:35:03;;;;;;;2.30;1.05;;;9.70;99.90;;;;;;5064520;28;20083;-82
2023/03/21 06:37:30;;;;;;;1.75;0.90;;;9.70;99.90;;;;;;5046413;28;20052;-83
2023/03/21 06:39:56;;;;;;;1.75;0.77;;;9.70;99.90;;;;;;5062533;28;20051;-83
2023/03/21 06:42:23;;;;;;;1.40;0.80;;;9.70;99.90;;;;;;5046590;28;20074;-83
2023/03/21 06:44:50;;;;;;;1.95;1.00;;;9.70;99.90;;;;;;5058851;28;20393;-83
2023/03/21 06:47:17;;;;;;;1.33;0.60;;;9.70;99.90;;;;;;5047338;28;20052;-84
2023/03/21 06:49:44;;;;;;;1.38;0.75;;;9.70;99.90;;;;;;5045309;28;20664;-82
2023/03/21 06:52:11;;;;;;;0.73;0.52;;;9.70;99.90;;;;;;5039431;28;20086;-84
2023/03/21 06:54:38;;;;;;;2.88;1.10;;;9.80;99.90;;;;;;5042858;28;20051;-82
2023/03/21 06:57:05;;;;;;;2.38;0.90;;;9.80;99.90;;;;;;5050044;28;20139;-84
2023/03/21 06:59:32;;;;;;;1.58;0.80;;;9.80;99.90;;;;;;5078022;28;20056;-84
2023/03/21 07:01:59;;;;;;;1.33;0.80;;;9.80;99.90;;;;;;5064690;28;20277;-84
2023/03/21 07:04:26;;;;;;;1.50;0.90;;;9.90;99.90;;;;;;5061842;28;20582;-85
2023/03/21 07:06:54;;;;;;;1.17;0.65;;;9.90;99.90;;;;;;5052129;28;20044;-84
2023/03/21 07:09:23;;;;;;;1.55;0.82;;;10.00;99.90;;;;;;5077544;28;20047;-85
2023/03/21 07:11:52;;;;;;;1.88;1.05;;;10.00;99.90;;;;;;5047014;28;20483;-84
2023/03/21 07:14:19;;;;;;;0.85;0.70;;;10.20;99.90;;;;;;5060200;28;20049;-84
2023/03/21 07:16:46;;;;;;;1.85;0.80;;;10.20;99.90;;;;;;5051558;28;20083;-84
2023/03/21 07:19:14;;;;;;;2.15;0.90;;;10.30;99.90;;;;;;5069100;28;20059;-85
2023/03/21 07:21:41;;;;;;;1.15;0.50;;;10.30;99.90;;;;;;5068703;28;20521;-84
2023/03/21 07:24:08;;;;;;;1.20;0.70;;;10.40;99.90;;;;;;5043655;28;20052;-84
2023/03/21 07:26:36;;;;;;;1.25;0.60;;;10.40;99.90;;;;;;5055839;28;20052;-84
2023/03/21 07:29:03;;;;;;;0.93;0.63;;;10.40;99.90;;;;;;5046118;28;20078;-84
2023/03/21 07:31:30;;;;;;;1.90;0.90;;;10.40;99.90;;;;;;5044497;28;20608;-84
2023/03/21 07:33:57;;;;;;;1.25;0.80;;;10.40;99.90;;;;;;5076758;28;20144;-83
2023/03/21 07:36:23;;;;;;;1.25;0.60;;;10.50;99.90;;;;;;5077388;28;20044;-82
2023/03/21 07:38:50;;;;;;;1.55;0.82;;;10.50;99.90;;;;;;5059111;28;20405;-80
2023/03/21 07:41:17;;;;;;;0.60;0.60;;;10.50;99.90;;;;;;5058256;28;20056;-81
2023/03/21 07:43:43;;;;;;;1.20;0.73;;;10.40;99.90;;;;;;5079881;28;20044;-80
2023/03/21 07:46:11;;;;;;;1.92;0.98;;;10.40;99.90;;;;;;5064475;28;20104;-81
2023/03/21 07:48:38;;;;;;;1.90;0.90;;;10.40;99.90;;;;;;5085107;28;20134;-81
2023/03/21 07:51:05;;;;;;;1.38;0.70;;;10.40;99.90;;;;;;5050111;28;20429;-81
2023/03/21 07:53:40;;;;;;;1.02;0.70;;;10.40;99.90;;;;;;5049985;28;20188;-81
2023/03/21 07:56:07;;;;;;;1.65;0.95;;;10.40;99.90;;;;;;5050342;28;20047;-82
2023/03/21 07:58:35;;;;;;;1.25;0.85;;;10.40;99.90;;;;;;5084064;28;20052;-80
2023/03/21 08:01:02;;;;;;;0.95;0.60;;;10.40;99.90;;;;;;5084948;28;20097;-79
2023/03/21 08:03:31;;;;;;;1.13;0.63;;;10.50;99.90;;;;;;5062805;28;20436;-81
2023/03/21 08:06:00;;;;;;;1.05;0.50;;;10.50;99.90;;;;;;5081146;28;20098;-81
2023/03/21 08:08:27;;;;;;;1.58;0.95;;;10.40;99.90;;;;;;5062608;28;20120;-80
2023/03/21 08:10:53;;;;;;;1.92;0.82;;;10.40;99.90;;;;;;5065672;28;20405;-81
2023/03/21 08:13:21;;;;;;;1.27;0.57;;;10.40;99.90;;;;;;5049597;28;20127;-80
2023/03/21 08:15:48;;;;;;;1.50;0.70;;;10.40;99.90;;;;;;5050415;28;20079;-80
2023/03/21 08:18:15;;;;;;;1.25;0.73;;;10.30;99.90;;;;;;5066480;28;20040;-80
2023/03/21 08:20:42;;;;;;;1.45;0.60;;;10.40;99.90;;;;;;5021863;28;20063;-80
2023/03/21 08:23:09;;;;;;;0.82;0.70;;;10.50;99.90;;;;;;5056033;28;20478;-80
2023/03/21 08:25:36;;;;;;;0.95;0.60;;;10.60;99.90;;;;;;5065628;28;20454;-81
2023/03/21 08:28:03;;;;;;;1.23;0.55;;;10.70;99.90;;;;;;5049654;28;20082;-81
2023/03/21 08:30:30;;;;;;;1.08;0.70;;;10.70;99.90;;;;;;5049487;28;20167;-81
2023/03/21 08:32:57;;;;;;;1.00;0.80;;;10.80;99.90;;;;;;5049160;28;20058;-81
2023/03/21 08:35:26;;;;;;;1.92;0.85;;;10.80;99.90;;;;;;5057219;28;20113;-81
2023/03/21 08:37:53;;;;;;;1.67;0.90;;;10.80;99.90;;;;;;5048753;28;20047;-82
2023/03/21 08:40:20;;;;;;;1.48;0.73;;;10.90;99.90;;;;;;5048848;28;20055;-82
2023/03/21 08:42:47;;;;;;;3.33;0.90;;;10.90;99.90;;;;;;5049047;28;20051;-81
2023/03/21 08:45:15;;;;;;;2.17;0.90;;;10.90;99.90;;;;;;5033527;28;20051;-81
2023/03/21 08:47:42;;;;;;;3.90;1.60;;;11.00;99.90;;;;;;5033130;28;20483;-81
2023/03/21 08:50:11;;;;;;;1.60;1.10;;;11.00;99.90;;;;;;5033112;28;20675;-80
2023/03/21 08:52:38;;;;;;;1.90;1.20;;;11.00;99.90;;;;;;5031273;28;20055;-81
2023/03/21 08:55:08;;;;;;;2.53;1.13;;;11.00;99.90;;;;;;5065414;28;20044;-81
2023/03/21 08:57:36;;;;;;;3.17;1.10;;;11.00;99.90;;;;;;5065570;28;20080;-81
2023/03/21 09:00:08;;;;;;;2.85;1.08;;;11.00;99.90;;;;;;5032838;28;20353;-80
2023/03/21 09:02:35;;;;;;;4.25;1.40;;;11.00;99.90;;;;;;5033728;28;20143;-80
2023/03/21 09:05:04;;;;;;;1.60;0.93;;;11.10;99.90;;;;;;5049523;28;20505;-80
2023/03/21 09:07:33;;;;;;;3.22;1.08;;;11.20;99.90;;;;;;5029947;28;20054;-81
2023/03/21 09:10:00;;;;;;;1.25;1.00;;;11.40;99.90;;;;;;5067537;28;20076;-81
2023/03/21 09:12:47;;;;;;;1.70;0.75;;;11.60;99.90;;;;;;5049143;28;20797;-82
2023/03/21 09:15:14;;;;;;;1.77;0.98;;;11.70;99.90;;;;;;5040232;28;20500;-92
2023/03/21 09:17:48;;;;;;;1.50;0.80;;;11.80;99.90;;;;;;5030363;28;20445;-82
2023/03/21 09:20:19;;;;;;;1.17;0.68;;;12.00;99.90;;;;;;5058433;28;20618;-81
2023/03/21 09:22:47;;;;;;;1.13;0.57;;;12.00;99.90;;;;;;5057928;28;20649;-82
2023/03/21 09:25:14;;;;;;;2.13;0.85;;;12.10;99.90;;;;;;5038431;28;20044;-81
2023/03/21 09:27:43;;;;;;;1.75;0.77;;;12.10;99.90;;;;;;5023069;28;20047;-82
2023/03/21 09:30:15;;;;;;;1.88;0.85;;;12.20;99.90;;;;;;5045914;28;20101;-82
2023/03/21 09:32:44;;;;;;;2.42;0.73;;;12.30;99.90;;;;;;5082717;28;20365;-82
2023/03/21 09:35:11;;;;;;;2.38;1.02;;;12.40;99.90;;;;;;5048979;28;20139;-82
2023/03/21 09:37:41;;;;;;;3.35;1.17;;;12.40;99.90;;;;;;5064803;28;20075;-82
2023/03/21 09:40:22;;;;;;;1.92;0.80;;;12.50;99.90;;;;;;5048986;28;20056;-81
2023/03/21 09:43:23;;;;;;;4.03;0.95;;;12.50;99.90;;;;;;5048370;28;20078;-81
2023/03/21 09:46:01;;;;;;;2.28;0.93;;;12.60;99.90;;;;;;5065449;28;20044;-82
2023/03/21 09:49:06;;;;;;;0.68;0.40;;;12.70;99.90;;;;;;5049486;28;20048;-83
2023/03/21 09:51:39;;;;;;;1.08;0.63;;;12.90;99.90;;;;;;5064439;28;20152;-82
2023/03/21 09:54:12;;;;;;;1.52;0.73;;;13.20;99.90;;;;;;5052387;28;20056;-82
2023/03/21 09:56:39;;;;;;;2.63;0.90;;;13.10;99.90;;;;;;5053049;28;20054;-82
2023/03/21 09:59:07;;;;;;;1.25;0.50;;;13.20;99.90;;;;;;5036242;28;20897;-82
2023/03/21 10:01:40;;;;;;;1.38;0.70;;;13.40;99.90;;;;;;5069782;28;20189;-81
2023/03/21 10:04:10;;;;;;;1.80;0.52;;;13.60;99.90;;;;;;5053172;28;20044;-82
2023/03/21 10:06:40;;;;;;;2.35;0.85;;;13.70;99.90;;;;;;5051679;28;20043;-82
2023/03/21 10:09:20;;;;;;;2.35;0.90;;;13.70;99.90;;;;;;5036089;28;20055;-82
2023/03/21 10:11:56;;;;;;;2.15;0.73;;;13.80;99.90;;;;;;5053453;28;20091;-82
2023/03/21 10:14:32;;;;;;;2.97;1.30;;;13.90;99.90;;;;;;5068472;28;20052;-82
2023/03/21 10:17:27;;;;;;;1.83;0.70;;;13.80;99.90;;;;;;5036562;28;20055;-82
2023/03/21 10:20:17;;;;;;;1.13;0.60;;;13.80;99.90;;;;;;5078834;28;20477;-82
2023/03/21 10:22:45;;;;;;;2.15;0.70;;;13.80;99.90;;;;;;5076149;28;20048;-82
2023/03/21 10:25:17;;;;;;;2.47;0.73;;;13.80;99.90;;;;;;5048290;28;20044;-82
2023/03/21 10:27:44;;;;;;;1.97;0.80;;;13.70;99.90;;;;;;5064889;28;20563;-82
2023/03/21 10:30:41;;;;;;;3.28;1.00;;;13.80;99.90;;;;;;5051523;28;20936;-82
2023/03/21 10:33:12;;;;;;;1.00;0.65;;;13.60;99.90;;;;;;5074677;28;20144;-82
2023/03/21 10:35:39;;;;;;;1.17;0.50;;;13.50;99.90;;;;;;5036367;28;20064;-82
2023/03/21 10:38:12;;;;;;;1.10;0.70;;;13.30;99.90;;;;;;5051493;28;20143;-81
2023/03/21 10:40:38;;;;;;;1.70;0.63;;;13.30;99.90;;;;;;5035490;28;20048;-82
2023/03/21 10:43:39;;;;;;;1.67;0.77;;;13.20;99.90;;;;;;5051132;28;20055;-82
2023/03/21 10:46:17;;;;;;;1.52;0.65;;;13.20;99.90;;;;;;5015245;28;20617;-82
2023/03/21 10:48:46;;;;;;;1.45;0.52;;;13.30;99.90;;;;;;5048346;28;20044;-82
2023/03/21 10:51:17;;;;;;;1.42;0.77;;;13.40;99.90;;;;;;5047531;28;20044;-82
2023/03/21 10:53:55;;;;;;;0.93;0.40;;;13.60;99.90;;;;;;5048109;28;20131;-83
2023/03/21 10:56:24;;;;;;;0.93;0.68;;;13.60;99.90;;;;;;5064730;28;20384;-82
2023/03/21 10:58:52;;;;;;;2.65;0.70;;;13.60;99.90;;;;;;5064881;28;20526;-82
2023/03/21 11:01:39;;;;;;;1.35;0.63;;;13.40;99.90;;;;;;5064695;28;20059;-82
2023/03/21 11:04:18;;;;;;;2.47;0.90;;;13.30;99.90;;;;;;5067625;28;20498;-82
2023/03/21 11:06:50;;;;;;;2.53;0.80;;;13.20;99.90;;;;;;5050897;28;20048;-82
2023/03/21 11:09:20;;;;;;;1.60;0.77;;;13.30;99.90;;;;;;5048106;28;20426;-81
2023/03/21 11:11:54;;;;;;;1.63;0.68;;;13.40;99.90;;;;;;5040608;28;20048;-81
2023/03/21 11:14:41;;;;;;;1.35;0.57;;;13.50;99.90;;;;;;5045215;28;20040;-82
2023/03/21 11:17:17;;;;;;;1.77;0.95;;;13.70;99.90;;;;;;5061319;28;20048;-81
2023/03/21 11:19:48;;;;;;;1.30;0.80;;;14.00;99.90;;;;;;5067851;28;20317;-82
2023/03/21 11:22:15;;;;;;;1.90;0.60;;;14.10;99.90;;;;;;5073183;28;20105;-81
2023/03/21 11:24:45;;;;;;;1.75;0.52;;;14.30;99.90;;;;;;5021975;28;20139;-79
2023/03/21 11:27:12;;;;;;;1.50;0.60;;;14.40;99.90;;;;;;5038373;28;20075;-82
2023/03/21 11:29:40;;;;;;;1.65;0.70;;;14.50;99.90;;;;;;5045736;28;20047;-81
2023/03/21 11:32:23;;;;;;;1.40;0.77;;;14.60;99.90;;;;;;5048877;28;20060;-81
2023/03/21 11:35:12;;;;;;;2.75;0.90;;;14.50;99.90;;;;;;5051790;28;20087;-80
2023/03/21 11:37:45;;;;;;;1.30;0.73;;;14.70;99.90;;;;;;5051788;28;20047;-81
2023/03/21 11:40:24;;;;;;;1.88;0.70;;;15.10;99.90;;;;;;5049953;28;20179;-81
2023/03/21 11:42:55;;;;;;;1.23;0.50;;;15.40;99.90;;;;;;5084877;28;20048;-80
2023/03/21 11:45:23;;;;;;;1.58;0.57;;;15.60;99.90;;;;;;5067317;28;20074;-80
2023/03/21 11:47:55;;;;;;;2.38;0.95;;;15.50;99.90;;;;;;5046960;28;20052;-81
2023/03/21 11:50:35;;;;;;;1.05;0.55;;;15.30;99.90;;;;;;5067143;28;20359;-81
2023/03/21 11:53:17;;;;;;;2.22;0.60;;;15.30;99.90;;;;;;5034593;28;20581;-81
2023/03/21 11:56:03;;;;;;;1.50;0.80;;;15.20;99.90;;;;;;5084415;28;20558;-82
2023/03/21 11:58:37;;;;;;;2.17;0.63;;;15.20;99.90;;;;;;5084311;28;20044;-82
2023/03/21 12:01:23;;;;;;;1.52;0.57;;;15.20;99.90;;;;;;5062986;28;20072;-82
2023/03/21 12:04:02;;;;;;;2.00;0.93;;;15.10;99.90;;;;;;5079465;28;20051;-82
2023/03/21 12:06:35;;;;;;;2.13;0.85;;;14.90;99.90;;;;;;5066395;28;20465;-82
2023/03/21 12:09:29;;;;;;;2.45;0.95;;;14.60;99.90;;;;;;5049650;28;20127;-81
2023/03/21 12:12:14;;;;;;;2.63;1.00;;;14.40;99.90;;;;;;5084707;28;20063;-81
2023/03/21 12:14:42;;;;;;;2.45;0.90;;;14.20;99.90;;;;;;5066332;28;20048;-82
2023/03/21 12:17:27;;;;;;;3.03;1.08;;;14.00;99.90;;;;;;5066629;28;20044;-82
2023/03/21 12:20:17;;;;;;;2.05;0.65;;;13.90;99.90;;;;;;5066363;28;20048;-82
2023/03/21 12:23:03;;;;;;;3.17;1.20;;;13.80;99.90;;;;;;5069672;28;20051;-81
2023/03/21 12:25:33;;;;;;;3.53;1.08;;;13.70;99.90;;;;;;5062098;28;20059;-82
2023/03/21 12:28:16;;;;;;;2.75;0.93;;;13.80;99.90;;;;;;5046957;28;20048;-81
2023/03/21 12:31:21;;;;;;;0.90;0.70;;;13.80;99.90;;;;;;5064857;28;20511;-82
2023/03/21 12:34:26;;;;;;;1.58;0.82;;;14.00;99.90;;;;;;5064950;28;20474;-81
2023/03/21 12:37:21;;;;;;;2.25;0.90;;;14.10;99.90;;;;;;5046038;28;20130;-81
2023/03/21 12:39:48;;;;;;;1.30;0.70;;;14.10;99.90;;;;;;5063360;28;20062;-81
2023/03/21 12:42:20;;;;;;;1.10;0.60;;;14.10;99.90;;;;;;5065459;28;20067;-81
2023/03/21 12:44:56;;;;;;;3.13;0.90;;;14.20;99.90;;;;;;5084202;28;20108;-81
2023/03/21 12:47:24;;;;;;;2.42;0.90;;;14.10;99.90;;;;;;5049796;28;20044;-81
2023/03/21 12:50:13;;;;;;;2.60;1.05;;;14.10;99.90;;;;;;5047114;28;20048;-82
2023/03/21 12:52:45;;;;;;;2.45;1.02;;;14.00;99.90;;;;;;5079518;28;20115;-81
2023/03/21 12:55:26;;;;;;;2.10;0.90;;;13.90;99.90;;;;;;5048701;28;20058;-81
2023/03/21 12:57:55;;;;;;;3.00;1.23;;;13.90;99.90;;;;;;5065812;28;20044;-81
2023/03/21 13:00:43;;;;;;;4.43;1.40;;;14.00;99.90;;;;;;5066348;28;20079;-80
2023/03/21 13:03:20;;;;;;;2.75;1.13;;;14.00;99.90;;;;;;5050790;28;20048;-81
2023/03/21 13:05:57;;;;;;;3.15;1.00;;;14.00;99.90;;;;;;5068450;28;20055;-81
2023/03/21 13:08:27;;;;;;;2.90;1.13;;;14.00;99.90;;;;;;5048663;28;20206;-81
2023/03/21 13:10:54;;;;;;;3.50;1.10;;;14.10;99.90;;;;;;5048700;28;20139;-81
2023/03/21 13:13:28;;;;;;;1.33;0.60;;;14.20;99.90;;;;;;5060653;28;20080;-82
2023/03/21 13:16:02;;;;;;;1.90;0.98;;;14.20;99.90;;;;;;5042724;28;20059;-81
2023/03/21 13:18:40;;;;;;;2.88;1.10;;;14.10;99.90;;;;;;5026351;28;20055;-81